createdAt,value
2023-01-17T00:02:08.715Z,25.30
2023-01-17T00:04:54.883Z,27.20
2023-01-17T00:07:42.285Z,19.40
2023-01-17T00:10:15.903Z,20.10
2023-01-17T00:12:48.309Z,19.10
2023-01-17T00:15:16.748Z,19.80
2023-01-17T00:17:43.661Z,20.50
2023-01-17T00:20:32.673Z,19.50
2023-01-17T00:23:18.335Z,18.30
2023-01-17T00:26:03.809Z,24.00
2023-01-17T00:28:39.255Z,19.60
2023-01-17T00:31:07.633Z,20.60
2023-01-17T00:33:34.712Z,19.50
2023-01-17T00:36:02.272Z,19.10
2023-01-17T00:38:31.966Z,20.90
2023-01-17T00:41:07.232Z,18.10
2023-01-17T00:43:52.883Z,18.20
2023-01-17T00:46:39.417Z,16.50
2023-01-17T00:49:25.093Z,20.60
2023-01-17T00:52:10.731Z,19.50
2023-01-17T00:54:56.069Z,17.20
2023-01-17T00:57:41.884Z,17.00
2023-01-17T01:00:28.507Z,14.00
2023-01-17T01:03:13.755Z,18.00
2023-01-17T01:05:59.534Z,18.00
2023-01-17T01:08:48.815Z,16.00
2023-01-17T01:11:38.357Z,17.30
2023-01-17T01:14:25.984Z,18.10
2023-01-17T01:17:11.266Z,17.50
2023-01-17T01:19:56.645Z,17.40
2023-01-17T01:22:42.193Z,18.70
2023-01-17T01:25:30.838Z,16.80
2023-01-17T01:28:31.973Z,16.60
2023-01-17T01:31:21.992Z,19.30
2023-01-17T01:33:50.230Z,21.40
2023-01-17T01:36:17.067Z,19.40
2023-01-17T01:38:44.043Z,15.80
2023-01-17T01:41:10.878Z,17.70
2023-01-17T01:43:47.139Z,17.40
2023-01-17T01:46:39.284Z,18.40
2023-01-17T01:49:21.976Z,20.10
2023-01-17T01:51:59.983Z,20.50
2023-01-17T01:54:56.138Z,18.40
2023-01-17T01:57:26.787Z,18.80
2023-01-17T01:59:59.161Z,20.80
2023-01-17T02:02:28.461Z,19.90
2023-01-17T02:04:55.554Z,24.70
2023-01-17T02:07:31.208Z,21.50
2023-01-17T02:09:58.976Z,22.30
2023-01-17T02:12:26.539Z,24.20
2023-01-17T02:14:55.844Z,24.80
2023-01-17T02:17:45.718Z,25.60
2023-01-17T02:22:56.807Z,24.10
2023-01-17T02:25:46.781Z,26.40
2023-01-17T02:28:39.802Z,25.70
2023-01-17T02:31:34.335Z,23.50
2023-01-17T02:34:18.470Z,25.30
2023-01-17T02:37:04.232Z,22.40
2023-01-17T02:39:39.670Z,23.10
2023-01-17T02:42:18.251Z,24.70
2023-01-17T02:44:45.387Z,26.80
2023-01-17T02:47:23.371Z,25.10
2023-01-17T02:49:53.485Z,23.00
2023-01-17T02:52:52.553Z,24.40
2023-01-17T02:56:16.607Z,23.50
2023-01-17T02:59:04.073Z,23.40
2023-01-17T03:01:49.823Z,25.30
2023-01-17T03:04:37.525Z,23.90
2023-01-17T03:07:11.344Z,24.30
2023-01-17T03:09:40.901Z,23.20
2023-01-17T03:12:10.044Z,20.60
2023-01-17T03:14:36.995Z,26.50
2023-01-17T03:17:09.387Z,25.50
2023-01-17T03:19:36.383Z,23.50
2023-01-17T03:22:03.450Z,23.60
2023-01-17T03:24:30.285Z,22.20
2023-01-17T03:26:57.133Z,23.60
2023-01-17T03:29:23.978Z,26.10
2023-01-17T03:31:50.825Z,23.10
2023-01-17T03:34:17.680Z,21.80
2023-01-17T03:36:44.538Z,22.90
2023-01-17T03:39:11.904Z,24.50
2023-01-17T03:41:38.833Z,19.30
2023-01-17T03:44:05.989Z,20.20
2023-01-17T03:46:33.152Z,21.00
2023-01-17T03:48:59.992Z,21.50
2023-01-17T03:51:27.421Z,21.60
2023-01-17T03:53:54.403Z,19.00
2023-01-17T03:56:21.362Z,17.90
2023-01-17T03:58:48.239Z,20.90
2023-01-17T04:01:15.137Z,18.10
2023-01-17T04:03:42.108Z,19.00
2023-01-17T04:06:14.681Z,18.70
2023-01-17T04:08:42.044Z,19.20
2023-01-17T04:11:08.894Z,18.50
2023-01-17T04:13:35.845Z,18.50
2023-01-17T04:16:03.003Z,17.40
2023-01-17T04:18:29.947Z,17.50
2023-01-17T04:20:56.901Z,18.50
2023-01-17T04:23:23.724Z,16.30
2023-01-17T04:25:50.613Z,17.20
2023-01-17T04:28:17.550Z,16.60
2023-01-17T04:30:44.430Z,15.70
2023-01-17T04:33:11.253Z,15.80
2023-01-17T04:35:38.190Z,15.00
2023-01-17T04:38:04.999Z,15.10
2023-01-17T04:40:31.856Z,15.50
2023-01-17T04:42:59.665Z,15.30
2023-01-17T04:45:26.727Z,14.50
2023-01-17T04:47:53.670Z,13.10
2023-01-17T04:50:20.612Z,15.10
2023-01-17T04:52:47.371Z,16.20
2023-01-17T04:55:14.419Z,12.90
2023-01-17T04:57:41.368Z,13.50
2023-01-17T05:00:09.156Z,13.40
2023-01-17T05:02:36.030Z,14.10
2023-01-17T05:05:02.866Z,14.40
2023-01-17T05:07:29.882Z,12.80
2023-01-17T05:09:56.834Z,14.50
2023-01-17T05:12:23.694Z,13.10
2023-01-17T05:14:50.514Z,12.80
2023-01-17T05:17:17.379Z,12.60
2023-01-17T05:19:44.226Z,14.40
2023-01-17T05:22:15.639Z,13.60
2023-01-17T05:24:44.468Z,16.90
2023-01-17T05:27:12.852Z,15.40
2023-01-17T05:29:39.905Z,12.70
2023-01-17T05:32:07.218Z,15.50
2023-01-17T05:34:35.274Z,14.60
2023-01-17T05:37:02.230Z,14.60
2023-01-17T05:39:31.250Z,15.60
2023-01-17T05:41:59.435Z,14.10
2023-01-17T05:44:28.961Z,15.40
2023-01-17T05:46:56.400Z,13.80
2023-01-17T05:49:23.501Z,15.60
2023-01-17T05:51:51.198Z,14.00
2023-01-17T05:54:19.031Z,15.40
2023-01-17T05:56:45.979Z,16.10
2023-01-17T05:59:14.251Z,15.70
2023-01-17T06:01:41.415Z,16.40
2023-01-17T06:04:08.497Z,15.30
2023-01-17T06:06:35.426Z,13.50
2023-01-17T06:09:02.478Z,14.30
2023-01-17T06:11:29.320Z,17.40
2023-01-17T06:13:56.173Z,15.40
2023-01-17T06:16:23.283Z,13.20
2023-01-17T06:18:50.277Z,15.40
2023-01-17T06:21:17.184Z,17.50
2023-01-17T06:23:44.084Z,15.40
2023-01-17T06:26:11.434Z,15.90
2023-01-17T06:28:38.285Z,17.70
2023-01-17T06:31:09.354Z,16.80
2023-01-17T06:33:37.170Z,19.00
2023-01-17T06:36:04.669Z,15.80
2023-01-17T06:38:31.615Z,16.40
2023-01-17T06:41:00.665Z,16.10
2023-01-17T06:43:32.795Z,15.00
2023-01-17T06:46:01.088Z,16.10
2023-01-17T06:48:28.236Z,18.10
2023-01-17T06:50:57.220Z,16.50
2023-01-17T06:53:24.264Z,16.90
2023-01-17T06:55:52.754Z,17.00
2023-01-17T06:58:19.709Z,14.70
2023-01-17T07:00:47.150Z,16.20
2023-01-17T07:03:26.507Z,18.00
2023-01-17T07:05:53.680Z,17.90
2023-01-17T07:08:20.905Z,18.40
2023-01-17T07:10:48.969Z,15.20
2023-01-17T07:13:16.155Z,17.60
2023-01-17T07:15:43.147Z,16.10
2023-01-17T07:18:10.051Z,15.90
2023-01-17T07:20:38.567Z,13.50
2023-01-17T07:23:06.891Z,17.00
2023-01-17T07:25:33.759Z,19.50
2023-01-17T07:28:00.723Z,17.00
2023-01-17T07:30:30.014Z,15.40
2023-01-17T07:32:57.276Z,12.90
2023-01-17T07:35:27.022Z,13.10
2023-01-17T07:37:55.072Z,12.00
2023-01-17T07:40:22.843Z,15.80
2023-01-17T07:42:50.102Z,14.70
2023-01-17T07:45:17.860Z,13.00
2023-01-17T07:47:45.197Z,11.90
2023-01-17T07:50:13.846Z,13.10
2023-01-17T07:52:40.979Z,12.90
2023-01-17T07:55:09.158Z,12.60
2023-01-17T07:57:36.301Z,11.50
2023-01-17T08:00:04.697Z,11.60
2023-01-17T08:02:39.097Z,13.90
2023-01-17T08:05:06.458Z,11.80
2023-01-17T08:07:33.414Z,12.40
2023-01-17T08:10:01.529Z,12.10
2023-01-17T08:12:29.696Z,11.20
2023-01-17T08:14:56.829Z,11.10
2023-01-17T08:17:23.894Z,10.60
2023-01-17T08:19:52.371Z,11.20
2023-01-17T08:22:19.334Z,11.30
2023-01-17T08:24:46.172Z,10.70
2023-01-17T08:27:13.113Z,9.10
2023-01-17T08:29:43.129Z,10.10
2023-01-17T08:34:36.736Z,9.40
2023-01-17T08:37:03.676Z,8.20
2023-01-17T08:39:30.632Z,9.10
2023-01-17T08:41:57.794Z,8.80
2023-01-17T08:44:25.262Z,8.80
2023-01-17T08:46:52.195Z,9.70
2023-01-17T08:49:19.353Z,10.30
2023-01-17T08:51:46.401Z,9.60
2023-01-17T08:54:15.502Z,9.40
2023-01-17T08:56:47.155Z,9.20
2023-01-17T08:59:14.214Z,11.00
2023-01-17T09:01:42.200Z,10.00
2023-01-17T09:04:10.124Z,11.60
2023-01-17T09:06:39.475Z,10.50
2023-01-17T09:09:07.551Z,10.40
2023-01-17T09:11:35.103Z,11.10
2023-01-17T09:14:02.158Z,11.10
2023-01-17T09:16:29.752Z,12.10
2023-01-17T09:18:58.633Z,10.30
2023-01-17T09:21:27.102Z,9.70
2023-01-17T09:23:55.309Z,12.80
2023-01-17T09:26:29.264Z,9.20
2023-01-17T09:28:56.668Z,11.60
2023-01-17T09:31:24.014Z,10.40
2023-01-17T09:33:52.108Z,11.50
2023-01-17T09:36:19.177Z,14.80
2023-01-17T09:38:47.139Z,13.40
2023-01-17T09:41:27.933Z,12.60
2023-01-17T09:44:28.302Z,11.60
2023-01-17T09:47:07.780Z,11.80
2023-01-17T09:49:43.993Z,11.90
2023-01-17T09:52:17.809Z,12.60
2023-01-17T09:54:48.205Z,13.50
2023-01-17T09:57:27.155Z,14.40
2023-01-17T10:00:03.173Z,11.40
2023-01-17T10:02:55.657Z,13.50
2023-01-17T10:05:25.576Z,14.60
2023-01-17T10:08:16.772Z,10.90
2023-01-17T10:11:10.026Z,12.70
2023-01-17T10:14:03.169Z,14.00
2023-01-17T10:16:49.998Z,12.10
2023-01-17T10:19:46.395Z,13.80
2023-01-17T10:22:35.151Z,12.80
2023-01-17T10:25:20.518Z,10.60
2023-01-17T10:27:59.439Z,12.70
2023-01-17T10:30:34.159Z,12.40
2023-01-17T10:33:16.666Z,15.30
2023-01-17T10:35:55.590Z,11.00
2023-01-17T10:38:28.989Z,16.80
2023-01-17T10:41:01.058Z,16.70
2023-01-17T10:43:36.810Z,13.80
2023-01-17T10:46:03.801Z,11.50
2023-01-17T10:48:44.129Z,16.10
2023-01-17T10:51:29.385Z,12.30
2023-01-17T10:54:21.505Z,16.10
2023-01-17T10:56:48.893Z,13.00
2023-01-17T10:59:27.898Z,14.00
2023-01-17T11:01:55.001Z,12.30
2023-01-17T11:04:26.500Z,12.50
2023-01-17T11:07:21.577Z,13.70
2023-01-17T11:09:51.532Z,12.20
2023-01-17T11:15:10.176Z,14.00
2023-01-17T11:18:15.056Z,14.80
2023-01-17T11:20:46.262Z,11.40
2023-01-17T11:23:21.297Z,14.70
2023-01-17T11:26:10.744Z,11.30
2023-01-17T11:28:40.601Z,12.60
2023-01-17T11:31:30.843Z,12.70
2023-01-17T11:34:32.381Z,12.40
2023-01-17T11:37:17.039Z,13.10
2023-01-17T11:39:44.827Z,11.30
2023-01-17T11:42:32.118Z,11.10
2023-01-17T11:45:26.299Z,12.30
2023-01-17T11:48:08.385Z,17.10
2023-01-17T11:50:41.582Z,13.90
2023-01-17T11:53:31.048Z,12.00
2023-01-17T11:56:06.087Z,13.70
2023-01-17T11:58:36.046Z,11.30
2023-01-17T12:04:01.121Z,12.70
2023-01-17T12:06:57.916Z,13.50
2023-01-17T12:09:48.447Z,12.40
2023-01-17T12:13:13.513Z,18.80
2023-01-17T12:16:33.255Z,11.60
2023-01-17T12:19:32.651Z,14.60
2023-01-17T12:22:29.374Z,14.00
2023-01-17T12:25:17.620Z,13.40
2023-01-17T12:28:22.139Z,15.00
2023-01-17T12:31:01.289Z,12.70
2023-01-17T12:33:37.490Z,12.00
2023-01-17T12:36:34.312Z,12.70
2023-01-17T12:39:08.354Z,14.00
2023-01-17T12:41:56.690Z,12.80
2023-01-17T12:44:34.593Z,13.10
2023-01-17T12:47:04.867Z,13.50
2023-01-17T12:49:49.688Z,16.70
2023-01-17T12:52:28.924Z,11.60
2023-01-17T12:55:02.531Z,12.50
2023-01-17T12:57:38.144Z,11.60
2023-01-17T13:00:13.789Z,11.20
2023-01-17T13:02:59.281Z,13.60
2023-01-17T13:05:42.208Z,14.60
2023-01-17T13:08:18.364Z,13.90
2023-01-17T13:10:59.440Z,12.90
2023-01-17T13:13:28.333Z,13.80
2023-01-17T13:16:05.366Z,12.80
2023-01-17T13:18:33.589Z,14.40
2023-01-17T13:21:08.834Z,13.50
2023-01-17T13:23:35.783Z,14.00
2023-01-17T13:26:06.929Z,12.00
2023-01-17T13:29:03.353Z,13.60
2023-01-17T13:31:52.061Z,13.20
2023-01-17T13:34:28.252Z,13.60
2023-01-17T13:37:21.195Z,10.10
2023-01-17T13:40:19.676Z,12.00
2023-01-17T13:42:57.978Z,11.40
2023-01-17T13:45:29.062Z,13.10
2023-01-17T13:48:13.065Z,11.60
2023-01-17T13:50:55.795Z,10.40
2023-01-17T13:53:34.796Z,13.10
2023-01-17T13:56:21.602Z,12.80
2023-01-17T13:58:50.657Z,13.20
2023-01-17T14:01:23.990Z,12.00
2023-01-17T14:03:53.563Z,13.10
2023-01-17T14:06:38.779Z,10.90
2023-01-17T14:09:08.786Z,14.10
2023-01-17T14:14:35.855Z,16.40
2023-01-17T14:17:15.702Z,14.40
2023-01-17T14:19:46.737Z,15.50
2023-01-17T14:22:30.160Z,15.80
2023-01-17T14:25:19.752Z,18.00
2023-01-17T14:27:57.520Z,18.40
2023-01-17T14:30:33.590Z,16.10
2023-01-17T14:33:04.947Z,13.60
2023-01-17T14:35:34.636Z,14.90
2023-01-17T14:38:03.304Z,15.90
2023-01-17T14:40:32.905Z,16.00
2023-01-17T14:43:02.068Z,17.00
2023-01-17T14:45:35.372Z,17.10
2023-01-17T14:48:07.681Z,17.00
2023-01-17T14:50:44.091Z,17.80
2023-01-17T14:53:14.112Z,17.00
2023-01-17T14:58:32.685Z,18.10
2023-01-17T15:01:14.923Z,20.80
2023-01-17T15:03:54.236Z,19.50
2023-01-17T15:06:25.047Z,18.30
2023-01-17T15:08:55.284Z,21.70
2023-01-17T15:11:28.048Z,53.90
2023-01-17T15:14:02.373Z,380.00
2023-01-17T15:16:38.287Z,204.40
2023-01-17T15:19:15.544Z,82.90
2023-01-17T15:21:44.277Z,71.70
2023-01-17T15:24:27.834Z,70.80
2023-01-17T15:26:55.132Z,77.30
2023-01-17T15:29:31.989Z,55.90
2023-01-17T15:32:01.785Z,43.90
2023-01-17T15:34:39.274Z,42.60
2023-01-17T15:37:21.796Z,46.70
2023-01-17T15:39:49.173Z,50.70
2023-01-17T15:42:26.441Z,52.80
2023-01-17T15:45:01.073Z,58.20
2023-01-17T15:47:46.806Z,63.10
2023-01-17T15:50:19.941Z,91.80
2023-01-17T15:52:52.001Z,127.30
2023-01-17T15:55:29.592Z,110.70
2023-01-17T15:57:57.030Z,85.80
2023-01-17T16:00:45.614Z,85.90
2023-01-17T16:03:32.003Z,119.40
2023-01-17T16:06:01.086Z,114.60
2023-01-17T16:08:38.882Z,115.30
2023-01-17T16:11:08.095Z,350.70
2023-01-17T16:13:38.876Z,222.70
2023-01-17T16:16:11.004Z,129.90
2023-01-17T16:18:38.506Z,107.80
2023-01-17T16:21:27.318Z,92.30
2023-01-17T16:23:55.074Z,90.20
2023-01-17T16:26:22.330Z,85.60
2023-01-17T16:28:49.705Z,87.80
2023-01-17T16:31:18.017Z,87.10
2023-01-17T16:33:46.195Z,118.30
2023-01-17T16:36:16.682Z,92.00
2023-01-17T16:38:45.600Z,68.80
2023-01-17T16:41:13.029Z,78.10
2023-01-17T16:43:40.097Z,61.80
2023-01-17T16:46:07.809Z,60.80
2023-01-17T16:48:37.947Z,55.50
2023-01-17T16:51:06.921Z,60.50
2023-01-17T16:53:35.912Z,61.60
2023-01-17T16:56:13.748Z,62.30
2023-01-17T16:58:41.464Z,62.90
2023-01-17T17:01:17.525Z,73.20
2023-01-17T17:03:45.488Z,77.90
2023-01-17T17:06:13.351Z,80.60
2023-01-17T17:08:40.399Z,65.70
2023-01-17T17:11:16.575Z,70.00
2023-01-17T17:13:45.774Z,75.60
2023-01-17T17:16:26.747Z,84.50
2023-01-17T17:18:57.079Z,95.80
2023-01-17T17:21:24.648Z,93.90
2023-01-17T17:23:59.569Z,98.40
2023-01-17T17:26:31.218Z,90.80
2023-01-17T17:28:58.469Z,89.60
2023-01-17T17:31:25.468Z,87.10
2023-01-17T17:33:53.193Z,103.30
2023-01-17T17:36:20.155Z,105.50
2023-01-17T17:38:53.759Z,103.20
2023-01-17T17:41:23.845Z,103.60
2023-01-17T17:43:52.472Z,103.60
2023-01-17T17:46:21.976Z,93.50
2023-01-17T17:48:50.147Z,81.00
2023-01-17T17:51:26.168Z,76.80
2023-01-17T17:54:00.984Z,77.80
2023-01-17T17:56:30.654Z,82.00
2023-01-17T17:58:58.819Z,76.60
2023-01-17T18:01:26.466Z,77.60
2023-01-17T18:03:57.038Z,77.50
2023-01-17T18:06:24.179Z,73.00
2023-01-17T18:08:52.383Z,67.40
2023-01-17T18:11:26.237Z,66.60
2023-01-17T18:13:55.372Z,97.30
2023-01-17T18:16:28.492Z,117.00
2023-01-17T18:18:57.700Z,91.50
2023-01-17T18:21:27.719Z,96.90
2023-01-17T18:24:00.481Z,255.10
2023-01-17T18:26:33.446Z,290.90
2023-01-17T18:29:02.305Z,235.60
2023-01-17T18:31:32.121Z,179.00
2023-01-17T18:36:30.372Z,263.50
2023-01-17T18:38:57.839Z,191.10
2023-01-17T18:41:27.802Z,169.20
2023-01-17T18:43:58.287Z,111.70
2023-01-17T18:46:26.692Z,104.00
2023-01-17T18:48:57.331Z,101.80
2023-01-17T18:51:24.654Z,109.00
2023-01-17T18:53:53.251Z,149.40
2023-01-17T18:56:22.141Z,129.60
2023-01-17T18:58:50.661Z,123.40
2023-01-17T19:01:22.871Z,94.30
2023-01-17T19:03:52.810Z,97.10
2023-01-17T19:06:23.396Z,93.50
2023-01-17T19:08:52.073Z,91.60
2023-01-17T19:11:21.105Z,85.20
2023-01-17T19:13:48.995Z,88.30
2023-01-17T19:16:24.511Z,83.10
2023-01-17T19:18:52.952Z,80.90
2023-01-17T19:21:22.739Z,109.70
2023-01-17T19:26:20.082Z,125.40
2023-01-17T19:28:49.088Z,191.30
2023-01-17T19:31:20.672Z,183.80
2023-01-17T19:33:49.329Z,172.70
2023-01-17T19:36:22.052Z,176.20
2023-01-17T19:39:03.407Z,132.60
2023-01-17T19:41:31.433Z,132.20
2023-01-17T19:44:00.510Z,125.30
2023-01-17T19:46:28.106Z,112.90
2023-01-17T19:48:56.460Z,139.90
2023-01-17T19:51:24.416Z,152.40
2023-01-17T19:53:51.785Z,152.50
2023-01-17T19:56:21.395Z,136.50
2023-01-17T19:58:48.965Z,132.30
2023-01-17T20:01:17.691Z,131.30
2023-01-17T20:03:46.251Z,116.20
2023-01-17T20:06:16.175Z,115.20
2023-01-17T20:08:43.977Z,108.30
2023-01-17T20:11:15.114Z,105.90
2023-01-17T20:13:42.443Z,117.60
2023-01-17T20:16:12.413Z,113.00
2023-01-17T20:18:39.915Z,117.90
2023-01-17T20:21:20.174Z,107.00
2023-01-17T20:23:48.669Z,102.70
2023-01-17T20:26:19.005Z,104.60
2023-01-17T20:28:47.900Z,101.20
2023-01-17T20:31:17.592Z,107.50
2023-01-17T20:33:47.231Z,96.90
2023-01-17T20:36:16.664Z,101.40
2023-01-17T20:38:44.866Z,100.10
2023-01-17T20:41:16.926Z,107.70
2023-01-17T20:43:46.118Z,94.50
2023-01-17T20:46:14.193Z,88.20
2023-01-17T20:48:55.520Z,85.20
2023-01-17T20:51:25.665Z,86.40
2023-01-17T20:53:56.251Z,84.30
2023-01-17T20:56:24.550Z,86.10
2023-01-17T20:58:52.938Z,94.50
2023-01-17T21:01:22.008Z,102.10
2023-01-17T21:03:51.734Z,105.20
2023-01-17T21:06:20.861Z,102.50
2023-01-17T21:08:49.238Z,102.50
2023-01-17T21:11:19.988Z,89.20
2023-01-17T21:13:48.959Z,93.00
2023-01-17T21:16:17.990Z,90.60
2023-01-17T21:18:52.001Z,86.30
2023-01-17T21:21:25.465Z,90.30
2023-01-17T21:23:54.982Z,99.00
2023-01-17T21:26:28.151Z,95.40
2023-01-17T21:28:55.872Z,175.10
2023-01-17T21:31:26.620Z,111.40
2023-01-17T21:33:59.380Z,95.40
2023-01-17T21:36:29.083Z,85.00
2023-01-17T21:38:58.192Z,81.00
2023-01-17T21:41:28.838Z,79.60
2023-01-17T21:43:58.011Z,82.60
2023-01-17T21:46:26.636Z,79.30
2023-01-17T21:48:54.484Z,90.50
2023-01-17T21:51:22.246Z,83.40
2023-01-17T21:53:49.501Z,88.40
2023-01-17T21:56:35.901Z,93.50
2023-01-17T21:59:03.158Z,96.30
2023-01-17T22:01:33.439Z,82.50
2023-01-17T22:04:03.221Z,81.70
2023-01-17T22:06:34.766Z,86.90
2023-01-17T22:09:04.259Z,87.40
2023-01-17T22:11:32.096Z,82.70
2023-01-17T22:13:59.495Z,78.90
2023-01-17T22:16:26.744Z,84.10
2023-01-17T22:18:54.837Z,82.80
2023-01-17T22:21:28.438Z,75.00
2023-01-17T22:23:57.940Z,79.40
2023-01-17T22:26:27.710Z,73.90
2023-01-17T22:31:25.738Z,90.80
2023-01-17T22:34:01.035Z,86.40
2023-01-17T22:36:29.839Z,95.80
2023-01-17T22:38:57.145Z,81.90
2023-01-17T22:41:29.876Z,82.80
2023-01-17T22:43:59.032Z,85.20
2023-01-17T22:46:30.429Z,81.30
2023-01-17T22:48:58.139Z,89.30
2023-01-17T22:51:27.345Z,86.90
2023-01-17T22:53:56.825Z,74.70
2023-01-17T22:56:29.529Z,81.40
2023-01-17T22:58:57.821Z,82.20
2023-01-17T23:01:27.737Z,88.10
2023-01-17T23:06:27.469Z,93.50
2023-01-17T23:08:56.971Z,89.90
2023-01-17T23:11:47.570Z,87.70
2023-01-17T23:14:25.567Z,89.20
2023-01-17T23:17:14.929Z,83.40
2023-01-17T23:19:49.763Z,78.20
2023-01-17T23:22:30.106Z,78.40
2023-01-17T23:24:59.516Z,79.60
2023-01-17T23:27:46.938Z,75.40
2023-01-17T23:30:26.168Z,79.00
2023-01-17T23:32:55.394Z,72.70
2023-01-17T23:35:25.841Z,75.50
2023-01-17T23:38:11.582Z,74.90
2023-01-17T23:40:39.589Z,71.10
2023-01-17T23:43:25.356Z,71.40
2023-01-17T23:45:54.124Z,80.30
2023-01-17T23:48:24.011Z,78.90
2023-01-17T23:50:51.299Z,80.90
2023-01-17T23:53:23.196Z,79.10
2023-01-17T23:55:52.462Z,73.30
2023-01-17T23:58:21.877Z,74.20
